Time;durP1;ratioP1;P1;durP2;ratioP2;P2;SDS_P1;SDS_P2;PMS_P1;PMS_P2;Temp;Humidity;BMP_temperature;BMP_pressure;BME280_temperature;BME280_humidity;BME280_pressure;Samples;Min_cycle;Max_cycle;Signal;HPM_P1;HPM_P2
2023/05/28 00:00:20;;;;;;;7.32;3.40;;;;;;;16.79;46.84;102064.97;5061687;28;20040;-37
2023/05/28 00:02:45;;;;;;;9.07;3.20;;;;;;;16.83;46.70;102061.19;5063467;28;20024;-37
2023/05/28 00:05:11;;;;;;;8.25;3.05;;;;;;;16.83;46.80;102071.81;5072121;28;20043;-36
2023/05/28 00:07:37;;;;;;;9.57;4.78;;;;;;;16.75;47.07;102059.84;5069517;28;20441;-36
2023/05/28 00:10:02;;;;;;;8.18;3.40;;;;;;;16.73;47.08;102061.75;5068145;28;20043;-36
2023/05/28 00:12:28;;;;;;;10.05;2.90;;;;;;;16.66;47.26;102060.44;5062759;28;20486;-36
2023/05/28 00:14:54;;;;;;;6.18;2.60;;;;;;;16.60;47.42;102061.69;5070121;28;20074;-36
2023/05/28 00:17:20;;;;;;;8.40;3.42;;;;;;;16.66;47.27;102054.25;5077954;28;20024;-36
2023/05/28 00:19:46;;;;;;;9.00;3.20;;;;;;;16.67;47.14;102053.31;5080836;28;20033;-37
2023/05/28 00:22:11;;;;;;;8.57;3.22;;;;;;;16.62;47.29;102064.22;5068935;28;20031;-37
2023/05/28 00:24:37;;;;;;;11.50;3.33;;;;;;;16.65;46.99;102056.06;5068804;28;20039;-37
2023/05/28 00:27:08;;;;;;;8.35;3.78;;;;;;;16.60;47.20;102056.38;5064120;28;20028;-37
2023/05/28 00:29:34;;;;;;;;;;;;;;;16.59;47.55;102052.00;5067221;28;20093;-36
2023/05/28 00:31:59;;;;;;;8.00;2.70;;;;;;;16.63;46.91;102052.66;5055748;28;19924;-36
2023/05/28 00:34:25;;;;;;;7.95;3.72;;;;;;;16.59;46.88;102052.00;5064455;28;20062;-36
2023/05/28 00:36:51;;;;;;;8.10;3.35;;;;;;;16.60;46.79;102051.06;5065917;28;20482;-36
2023/05/28 00:39:18;;;;;;;10.15;3.83;;;;;;;16.64;46.80;102048.22;5068453;28;20028;-37
2023/05/28 00:41:44;;;;;;;6.15;3.03;;;;;;;16.61;46.81;102051.91;5067479;28;20048;-37
2023/05/28 00:44:09;;;;;;;9.13;2.95;;;;;;;16.61;46.72;102047.47;5067007;28;20028;-36
2023/05/28 00:46:36;;;;;;;12.80;2.65;;;;;;;16.57;46.80;102045.94;5066814;28;20035;-37
2023/05/28 00:49:02;;;;;;;9.85;3.45;;;;;;;16.49;46.98;102050.00;5069234;28;20423;-37
2023/05/28 00:51:28;;;;;;;7.50;3.05;;;;;;;16.43;47.13;102049.44;5059685;28;20557;-36
2023/05/28 00:53:54;;;;;;;5.35;2.25;;;;;;;16.41;47.14;102048.66;5067483;28;20028;-36
2023/05/28 00:56:22;;;;;;;9.73;3.20;;;;;;;16.41;47.07;102048.66;5066406;28;20039;-37
2023/05/28 00:58:49;;;;;;;4.55;1.98;;;;;;;16.41;47.26;102051.31;5062242;28;20082;-37
2023/05/28 01:01:14;;;;;;;7.82;3.28;;;;;;;16.39;47.15;102052.38;5065556;28;20047;-37
2023/05/28 01:03:41;;;;;;;6.55;3.53;;;;;;;16.35;47.23;102048.19;5058099;28;20024;-37
2023/05/28 01:06:12;;;;;;;10.27;3.53;;;;;;;16.32;47.59;102043.94;5061458;28;20036;-36
2023/05/28 01:08:38;;;;;;;6.78;3.38;;;;;;;16.28;47.63;102039.75;5063751;28;20020;-37
2023/05/28 01:11:12;;;;;;;6.25;2.83;;;;;;;16.26;47.97;102039.03;5060367;28;20092;-36
2023/05/28 01:13:39;;;;;;;6.82;3.15;;;;;;;16.21;48.01;102043.75;5054342;28;20483;-36
2023/05/28 01:16:05;;;;;;;9.10;4.35;;;;;;;16.11;48.07;102033.66;5060156;28;20580;-36
2023/05/28 01:18:33;;;;;;;9.43;3.53;;;;;;;16.04;48.23;102027.03;5066223;28;20017;-36
2023/05/28 01:21:01;;;;;;;9.23;3.15;;;;;;;16.03;48.27;102038.59;5062890;28;24331;-37
2023/05/28 01:23:28;;;;;;;8.77;3.90;;;;;;;16.01;48.45;102037.84;5075036;28;20442;-37
2023/05/28 01:25:55;;;;;;;9.23;3.67;;;;;;;15.96;48.59;102031.94;5073230;28;20449;-36
2023/05/28 01:28:24;;;;;;;8.25;3.80;;;;;;;15.99;48.53;102035.28;5070326;28;20491;-36
2023/05/28 01:30:49;;;;;;;9.65;3.50;;;;;;;16.02;48.56;102038.72;5062436;28;20398;-37
2023/05/28 01:33:15;;;;;;;7.55;2.88;;;;;;;16.01;48.47;102043.16;5065851;28;20499;-36
2023/05/28 01:35:41;;;;;;;10.60;3.17;;;;;;;16.00;48.67;102041.44;5063268;28;20036;-36
2023/05/28 01:38:10;;;;;;;9.07;3.85;;;;;;;15.92;48.72;102041.91;5059756;28;20139;-37
2023/05/28 01:40:38;;;;;;;7.72;3.65;;;;;;;15.77;49.10;102035.69;5072065;28;20029;-37
2023/05/28 01:43:04;;;;;;;34.08;4.53;;;;;;;15.65;49.36;102047.03;5060481;28;20036;-37
2023/05/28 01:45:30;;;;;;;10.70;5.13;;;;;;;15.55;49.67;102036.94;5070688;28;20063;-37
2023/05/28 01:47:56;;;;;;;6.78;3.60;;;;;;;15.53;49.90;102030.03;5064856;28;20027;-36
2023/05/28 01:50:22;;;;;;;7.20;3.40;;;;;;;15.45;49.98;102030.47;5063372;28;20039;-36
2023/05/28 01:52:47;;;;;;;9.98;3.58;;;;;;;15.42;50.13;102025.34;5066413;28;20517;-36
2023/05/28 01:55:13;;;;;;;7.60;3.80;;;;;;;15.42;50.12;102027.97;5063776;28;20036;-36
2023/05/28 01:57:39;;;;;;;9.35;3.75;;;;;;;15.38;50.35;102018.47;5063361;28;20040;-36
2023/05/28 02:00:06;;;;;;;5.43;2.90;;;;;;;15.37;50.49;102019.44;5067555;28;20025;-36
2023/05/28 02:02:32;;;;;;;9.68;3.58;;;;;;;15.35;50.18;102018.69;5069558;28;20032;-37
2023/05/28 02:04:58;;;;;;;9.23;3.42;;;;;;;15.33;50.28;102015.25;5066029;28;20036;-37
2023/05/28 02:07:23;;;;;;;6.93;3.28;;;;;;;15.30;50.47;102005.66;5069574;28;20391;-36
2023/05/28 02:09:49;;;;;;;7.15;3.33;;;;;;;15.33;50.50;102010.81;5063521;28;20387;-36
2023/05/28 02:12:15;;;;;;;10.20;3.78;;;;;;;15.28;50.44;102006.72;5067956;28;20831;-37
2023/05/28 02:14:42;;;;;;;6.90;3.13;;;;;;;15.29;50.44;102000.47;5068178;28;20035;-37
2023/05/28 02:17:09;;;;;;;7.88;3.15;;;;;;;15.37;50.04;102001.72;5066017;28;20024;-36
2023/05/28 02:19:35;;;;;;;6.13;3.33;;;;;;;15.35;50.24;102000.13;5068211;28;20504;-36
2023/05/28 02:22:00;;;;;;;9.02;3.85;;;;;;;15.30;50.12;102010.13;5064724;28;20044;-36
2023/05/28 02:24:26;;;;;;;8.68;3.53;;;;;;;15.32;50.18;102008.25;5066806;28;20056;-36
2023/05/28 02:26:51;;;;;;;5.25;3.22;;;;;;;15.31;49.99;102007.38;5071881;28;20042;-36
2023/05/28 02:29:17;;;;;;;7.28;3.28;;;;;;;15.22;50.04;102008.75;5052993;28;20043;-36
2023/05/28 02:31:42;;;;;;;9.07;3.58;;;;;;;15.17;50.13;102007.31;5066062;28;20043;-36
2023/05/28 02:34:07;;;;;;;9.23;3.75;;;;;;;15.09;50.42;102005.97;5059998;28;21141;-37
2023/05/28 02:36:35;;;;;;;11.38;3.17;;;;;;;15.06;50.37;102003.50;5059255;28;20032;-36
2023/05/28 02:39:01;;;;;;;43.85;20.15;;;;;;;15.01;50.29;102007.34;5067563;28;20049;-37
2023/05/28 02:41:26;;;;;;;21.50;11.05;;;;;;;15.03;50.38;102003.66;5069612;28;20101;-36
2023/05/28 02:43:53;;;;;;;10.70;6.50;;;;;;;15.02;50.26;102007.25;5067263;28;20502;-36
2023/05/28 02:46:18;;;;;;;7.38;3.70;;;;;;;15.11;49.85;102005.03;5070565;28;20035;-37
2023/05/28 02:48:45;;;;;;;7.28;3.15;;;;;;;15.13;49.94;102006.66;5069565;28;20032;-37
2023/05/28 02:51:11;;;;;;;7.72;3.42;;;;;;;15.16;49.88;102010.91;5072679;28;20026;-36
2023/05/28 02:53:36;;;;;;;10.55;3.10;;;;;;;15.15;49.84;102011.84;5066251;28;20094;-36
2023/05/28 02:56:02;;;;;;;6.75;2.97;;;;;;;15.15;49.63;102011.84;5062265;28;20024;-36
2023/05/28 02:58:32;;;;;;;8.07;3.47;;;;;;;15.13;49.74;102014.59;5068380;28;20036;-36
2023/05/28 03:00:57;;;;;;;9.15;3.60;;;;;;;15.05;49.82;102009.72;5060672;28;20031;-36
2023/05/28 03:03:23;;;;;;;8.52;4.18;;;;;;;15.01;49.78;102010.00;5069547;28;20036;-36
2023/05/28 03:05:50;;;;;;;7.50;3.72;;;;;;;14.97;49.98;102013.75;5067489;28;20042;-37
2023/05/28 03:08:16;;;;;;;9.68;4.47;;;;;;;14.85;50.12;102016.16;5071650;28;20532;-36
2023/05/28 03:10:41;;;;;;;13.07;4.47;;;;;;;14.77;50.53;102015.72;5051006;28;20066;-36
2023/05/28 03:13:08;;;;;;;8.95;3.63;;;;;;;14.71;50.84;102018.72;5065434;28;20024;-36
2023/05/28 03:15:33;;;;;;;12.73;5.05;;;;;;;14.69;50.97;102012.66;5064808;28;20028;-36
2023/05/28 03:17:59;;;;;;;9.23;3.92;;;;;;;14.69;51.06;102010.84;5060008;28;20085;-36
2023/05/28 03:20:25;;;;;;;8.00;2.95;;;;;;;14.68;51.17;102013.59;5064444;28;20016;-37
2023/05/28 03:22:56;;;;;;;8.90;4.32;;;;;;;14.79;51.05;102016.47;5070649;28;20085;-37
2023/05/28 03:25:21;;;;;;;8.75;3.83;;;;;;;14.84;50.89;102019.75;5069035;28;20479;-37
2023/05/28 03:27:47;;;;;;;12.60;4.07;;;;;;;14.87;50.81;102024.00;5049656;28;20044;-36
2023/05/28 03:30:14;;;;;;;7.82;3.50;;;;;;;14.81;50.87;102011.97;5062124;28;20074;-36
2023/05/28 03:32:40;;;;;;;8.40;3.95;;;;;;;14.84;51.07;102017.09;5068543;28;20296;-36
2023/05/28 03:35:06;;;;;;;7.00;3.60;;;;;;;14.89;50.81;102012.41;5067266;28;20032;-37
2023/05/28 03:37:31;;;;;;;10.18;3.97;;;;;;;14.92;50.85;102012.22;5070932;28;20034;-36
2023/05/28 03:39:57;;;;;;;9.52;4.40;;;;;;;14.89;51.03;102020.34;5068972;28;20024;-36
2023/05/28 03:42:22;;;;;;;9.30;3.88;;;;;;;14.91;50.81;102018.44;5061101;28;20072;-37
2023/05/28 03:44:48;;;;;;;7.75;3.53;;;;;;;14.94;51.01;102018.28;5068518;28;20036;-37
2023/05/28 03:47:13;;;;;;;8.00;3.40;;;;;;;14.98;50.87;102015.47;5064370;28;20486;-36
2023/05/28 03:49:39;;;;;;;8.73;4.20;;;;;;;14.93;51.23;102018.38;5072768;28;20067;-36
2023/05/28 03:52:05;;;;;;;10.98;3.78;;;;;;;14.87;51.63;102008.13;5065095;28;20395;-36
2023/05/28 03:54:31;;;;;;;11.25;4.20;;;;;;;14.88;51.57;102010.69;5066858;28;20032;-37
2023/05/28 03:56:57;;;;;;;7.90;4.15;;;;;;;14.96;51.59;102012.03;5065069;28;20071;-36
2023/05/28 03:59:22;;;;;;;10.80;4.55;;;;;;;15.00;51.38;102014.44;5065594;28;23395;-36
2023/05/28 04:01:48;;;;;;;8.38;3.67;;;;;;;14.99;51.35;102011.88;5068649;28;20039;-37
2023/05/28 04:04:13;;;;;;;9.68;4.65;;;;;;;15.02;51.88;102017.00;5061259;28;20062;-36
2023/05/28 04:06:38;;;;;;;9.73;4.82;;;;;;;15.10;51.78;102009.47;5066535;28;20063;-36
2023/05/28 04:09:04;;;;;;;9.27;3.95;;;;;;;15.11;51.89;102010.34;5070066;28;20028;-36
2023/05/28 04:11:30;;;;;;;13.38;7.10;;;;;;;15.08;51.98;102011.34;5070055;28;20031;-36
2023/05/28 04:13:55;;;;;;;17.95;8.25;;;;;;;15.05;52.29;102014.19;5056442;28;20028;-37
2023/05/28 04:16:23;;;;;;;18.65;10.68;;;;;;;15.09;52.34;102008.63;5067932;28;20991;-36
2023/05/28 04:18:52;;;;;;;13.25;5.68;;;;;;;15.17;52.40;102009.97;5073549;28;20413;-36
2023/05/28 04:21:17;;;;;;;14.40;4.18;;;;;;;15.19;52.40;102008.97;5062443;28;20031;-36
2023/05/28 04:23:43;;;;;;;10.77;3.67;;;;;;;15.19;52.60;102011.63;5069829;28;20360;-36
2023/05/28 04:26:09;;;;;;;11.95;4.35;;;;;;;15.28;52.42;102014.66;5066694;28;20036;-37
2023/05/28 04:28:35;;;;;;;10.65;3.78;;;;;;;15.34;52.37;102016.97;5066943;28;21054;-37
2023/05/28 04:31:01;;;;;;;9.32;4.18;;;;;;;15.43;52.01;102011.13;5066020;28;20036;-36
2023/05/28 04:33:30;;;;;;;9.48;4.10;;;;;;;15.47;52.14;102006.50;5066082;28;20119;-36
2023/05/28 04:35:57;;;;;;;12.88;4.80;;;;;;;15.45;52.21;102017.19;5064565;28;20027;-36
2023/05/28 04:38:23;;;;;;;10.27;3.90;;;;;;;15.44;52.32;102012.84;5063969;28;20043;-36
2023/05/28 04:40:49;;;;;;;9.98;3.60;;;;;;;15.49;52.18;102004.59;5070380;28;20039;-36
2023/05/28 04:43:15;;;;;;;9.20;4.00;;;;;;;15.54;52.23;102008.69;5061829;28;20032;-36
2023/05/28 04:45:41;;;;;;;11.73;4.30;;;;;;;15.55;52.49;102001.59;5066684;28;20547;-37
2023/05/28 04:48:07;;;;;;;8.98;4.50;;;;;;;15.63;52.39;102006.47;5061652;28;20036;-37
2023/05/28 04:50:33;;;;;;;10.93;4.80;;;;;;;15.73;52.19;102010.25;5068646;28;20020;-36
2023/05/28 04:52:58;;;;;;;8.80;4.20;;;;;;;15.79;52.12;102012.56;5065039;28;20081;-37
2023/05/28 04:55:24;;;;;;;14.68;4.38;;;;;;;15.84;51.91;102010.47;5065578;28;20410;-36
2023/05/28 04:57:49;;;;;;;8.30;4.05;;;;;;;15.78;52.12;102017.94;5063478;28;20029;-37
2023/05/28 05:00:15;;;;;;;8.85;3.67;;;;;;;15.75;52.42;102016.34;5059163;28;20090;-36
2023/05/28 05:02:41;;;;;;;9.75;4.07;;;;;;;15.81;52.16;102013.31;5061477;28;20055;-36
2023/05/28 05:05:07;;;;;;;9.15;4.03;;;;;;;15.87;52.24;102019.22;5058280;28;20039;-37
2023/05/28 05:07:37;;;;;;;8.88;4.80;;;;;;;15.87;52.40;102016.56;5058946;28;20089;-37
2023/05/28 05:10:11;;;;;;;8.45;4.13;;;;;;;15.91;52.78;102012.81;5059750;28;20024;-37
2023/05/28 05:12:37;;;;;;;12.13;4.90;;;;;;;15.90;52.42;102019.06;5064204;28;20111;-36
2023/05/28 05:15:04;;;;;;;10.57;4.78;;;;;;;15.96;52.50;102013.34;5064784;28;20035;-37
2023/05/28 05:17:30;;;;;;;10.35;4.20;;;;;;;16.02;52.38;102010.34;5047251;28;20064;-36
2023/05/28 05:19:57;;;;;;;11.45;4.40;;;;;;;16.03;52.35;102012.06;5055719;28;20059;-36
2023/05/28 05:22:23;;;;;;;9.80;4.38;;;;;;;16.02;52.55;102006.84;5055369;28;20399;-36
2023/05/28 05:24:49;;;;;;;9.88;4.72;;;;;;;16.05;52.65;102004.84;5060163;28;20033;-36
2023/05/28 05:27:15;;;;;;;8.80;4.70;;;;;;;16.10;52.40;102008.09;5064563;28;20033;-36
2023/05/28 05:29:41;;;;;;;9.15;3.45;;;;;;;16.15;52.43;102005.16;5059205;28;20021;-36
2023/05/28 05:32:06;;;;;;;11.50;5.75;;;;;;;16.18;52.45;102004.09;5054347;28;20920;-36
2023/05/28 05:34:32;;;;;;;13.38;4.20;;;;;;;16.28;52.16;102015.84;5064797;28;20016;-36
2023/05/28 05:36:58;;;;;;;10.82;4.32;;;;;;;16.31;52.16;102002.38;5054807;28;20028;-36
2023/05/28 05:39:24;;;;;;;9.43;4.38;;;;;;;16.35;52.21;102009.22;5064923;28;20043;-36
2023/05/28 05:41:50;;;;;;;13.95;4.43;;;;;;;16.42;52.06;102004.38;5065734;28;20642;-36
2023/05/28 05:44:15;;;;;;;12.63;4.75;;;;;;;16.49;52.03;102007.50;5058947;28;20065;-36
2023/05/28 05:46:41;;;;;;;14.13;5.28;;;;;;;16.57;52.09;102010.53;5048800;28;20028;-36
2023/05/28 05:49:06;;;;;;;10.50;4.32;;;;;;;16.60;52.12;102010.31;5061601;28;20931;-36
2023/05/28 05:51:32;;;;;;;9.50;4.15;;;;;;;16.64;52.09;102018.97;5065003;28;20481;-36
2023/05/28 05:53:57;;;;;;;12.88;6.03;;;;;;;16.67;52.16;102014.31;5058343;28;20036;-37
2023/05/28 05:56:23;;;;;;;15.43;7.47;;;;;;;16.71;52.11;102010.50;5057957;28;20048;-37
2023/05/28 05:58:48;;;;;;;11.90;6.80;;;;;;;16.75;52.11;102009.34;5061565;28;20036;-36
2023/05/28 06:01:17;;;;;;;14.43;4.88;;;;;;;16.84;51.87;102010.56;5062824;28;20051;-36
2023/05/28 06:03:42;;;;;;;11.93;4.25;;;;;;;16.90;51.69;102004.00;5066999;28;20032;-35
2023/05/28 06:06:08;;;;;;;10.75;4.22;;;;;;;16.91;51.58;102008.38;5065657;28;20505;-37
2023/05/28 06:08:35;;;;;;;8.13;3.90;;;;;;;16.92;51.53;102004.75;5043661;28;20402;-37
2023/05/28 06:11:00;;;;;;;7.93;3.63;;;;;;;16.95;51.54;102003.72;5042350;28;20521;-37
2023/05/28 06:13:26;;;;;;;10.25;4.80;;;;;;;16.99;51.53;102008.78;5066831;28;20043;-35
2023/05/28 06:15:51;;;;;;;9.60;4.03;;;;;;;17.08;51.36;102001.13;5070106;28;20478;-35
2023/05/28 06:18:17;;;;;;;9.77;4.13;;;;;;;17.13;51.21;101999.88;5065720;28;20028;-35
2023/05/28 06:20:42;;;;;;;8.77;4.50;;;;;;;17.16;51.13;101999.69;5068751;28;20039;-35
2023/05/28 06:23:07;;;;;;;17.40;4.60;;;;;;;17.19;51.01;101999.50;5063246;28;20032;-35
2023/05/28 06:25:35;;;;;;;8.27;4.25;;;;;;;17.25;50.88;101997.34;5067292;28;20032;-46
2023/05/28 06:28:01;;;;;;;10.77;4.40;;;;;;;17.26;50.75;102004.38;5069148;28;20049;-36
2023/05/28 06:30:26;;;;;;;17.05;4.97;;;;;;;17.32;50.79;102001.34;5065793;28;20134;-35
2023/05/28 06:32:52;;;;;;;10.15;3.97;;;;;;;17.39;50.70;101993.78;5067800;28;20115;-37
2023/05/28 06:35:18;;;;;;;8.85;3.80;;;;;;;17.44;50.67;101987.19;5066822;28;20041;-35
2023/05/28 06:37:43;;;;;;;9.50;3.90;;;;;;;17.49;50.46;101995.72;5069188;28;20043;-35
2023/05/28 06:40:10;;;;;;;11.52;4.70;;;;;;;17.55;50.30;101989.16;5059531;28;20032;-35
2023/05/28 06:42:37;;;;;;;9.13;4.28;;;;;;;17.62;50.25;101995.75;5067671;28;20028;-36
2023/05/28 06:45:03;;;;;;;10.35;4.15;;;;;;;17.67;50.15;101988.31;5071289;28;20402;-35
2023/05/28 06:47:29;;;;;;;10.63;4.25;;;;;;;17.73;50.04;101994.19;5062298;28;20024;-35
2023/05/28 06:49:55;;;;;;;9.75;3.92;;;;;;;17.79;49.99;101999.06;5066029;28;20046;-36
2023/05/28 06:52:21;;;;;;;7.78;3.72;;;;;;;17.83;49.80;102001.44;5063237;28;20044;-36
2023/05/28 06:54:46;;;;;;;7.10;3.22;;;;;;;17.89;49.64;102002.81;5068487;28;20105;-36
2023/05/28 06:57:12;;;;;;;11.73;5.18;;;;;;;17.95;49.36;102012.19;5064367;28;20039;-36
2023/05/28 06:59:37;;;;;;;10.80;4.63;;;;;;;18.00;49.15;102004.75;5064885;28;20036;-36
2023/05/28 07:02:03;;;;;;;10.43;4.07;;;;;;;18.07;48.85;102002.53;5067218;28;20024;-36
2023/05/28 07:04:28;;;;;;;10.20;4.00;;;;;;;18.09;48.83;102003.25;5065075;28;20036;-37
2023/05/28 07:06:54;;;;;;;9.63;3.50;;;;;;;18.13;48.75;102002.09;5070115;28;20386;-38
2023/05/28 07:09:19;;;;;;;5.65;3.03;;;;;;;18.16;48.66;102003.69;5065833;28;20027;-36
2023/05/28 07:11:45;;;;;;;8.40;3.10;;;;;;;18.19;48.55;102006.13;5062601;28;20036;-35
2023/05/28 07:14:11;;;;;;;6.63;3.20;;;;;;;18.24;48.32;102006.66;5048833;28;20035;-36
2023/05/28 07:16:36;;;;;;;9.38;3.55;;;;;;;18.28;48.03;102006.34;5069680;28;20047;-35
2023/05/28 07:19:01;;;;;;;8.35;3.10;;;;;;;18.33;47.77;102005.16;5068405;28;20545;-36
2023/05/28 07:21:27;;;;;;;10.40;3.70;;;;;;;18.36;47.48;102002.28;5064903;28;20040;-36
2023/05/28 07:23:52;;;;;;;10.20;3.80;;;;;;;18.41;47.23;102005.47;5068874;28;20024;-36
2023/05/28 07:26:20;;;;;;;5.15;2.30;;;;;;;18.43;47.00;102007.09;5057824;28;20081;-36
2023/05/28 07:28:45;;;;;;;6.53;2.78;;;;;;;18.48;46.73;102003.22;5058357;28;20047;-35
2023/05/28 07:31:11;;;;;;;6.82;3.22;;;;;;;18.52;46.13;102000.25;5066634;28;20027;-35
2023/05/28 07:33:36;;;;;;;8.27;2.55;;;;;;;18.52;45.99;102000.25;5068318;28;20032;-36
2023/05/28 07:36:02;;;;;;;6.85;2.58;;;;;;;18.57;45.87;102002.56;5068687;28;20038;-35
2023/05/28 07:38:27;;;;;;;11.38;3.30;;;;;;;18.62;45.86;102004.91;5061627;28;21437;-35
2023/05/28 07:40:53;;;;;;;7.07;3.42;;;;;;;18.67;45.46;102005.44;5073956;28;20036;-36
2023/05/28 07:43:18;;;;;;;9.50;2.90;;;;;;;18.71;44.87;102004.22;5067418;28;20028;-36
2023/05/28 07:45:48;;;;;;;7.97;3.47;;;;;;;18.78;44.61;101997.50;5065260;28;20551;-36
2023/05/28 07:48:14;;;;;;;9.95;4.05;;;;;;;18.85;44.46;101997.91;5054204;28;20030;-37
2023/05/28 07:50:40;;;;;;;5.10;3.00;;;;;;;18.91;44.56;101999.25;5069054;28;20037;-37
2023/05/28 07:53:06;;;;;;;7.07;2.42;;;;;;;18.96;44.16;101986.47;5063082;28;20070;-37
2023/05/28 07:55:32;;;;;;;10.30;3.40;;;;;;;19.00;43.98;101979.94;5067056;28;20380;-38
2023/05/28 07:57:58;;;;;;;11.57;5.18;;;;;;;19.04;43.74;101979.63;5064613;28;20036;-37
2023/05/28 08:00:26;;;;;;;15.02;5.68;;;;;;;19.10;43.42;101982.78;5065125;28;20024;-37
2023/05/28 08:02:52;;;;;;;8.43;4.38;;;;;;;19.08;43.35;101979.38;5068921;28;20032;-37
2023/05/28 08:05:18;;;;;;;8.65;2.67;;;;;;;19.11;43.23;101985.34;5063007;28;20050;-37
2023/05/28 08:07:44;;;;;;;6.85;2.40;;;;;;;19.15;42.88;101983.28;5064844;28;20032;-37
2023/05/28 08:10:09;;;;;;;13.27;3.20;;;;;;;19.16;42.83;101977.00;5065621;28;20036;-36
2023/05/28 08:12:37;;;;;;;5.07;2.00;;;;;;;19.21;41.87;101984.66;5067470;28;20024;-37
2023/05/28 08:15:04;;;;;;;8.38;2.30;;;;;;;19.23;40.85;101982.72;5070098;28;20037;-36
2023/05/28 08:17:31;;;;;;;6.80;2.08;;;;;;;19.27;40.64;101984.19;5064874;28;21320;-36
2023/05/28 08:19:57;;;;;;;15.25;4.05;;;;;;;19.28;40.34;101985.91;5067290;28;20757;-36
2023/05/28 08:22:22;;;;;;;8.20;3.90;;;;;;;19.31;40.27;101982.97;5060027;28;20035;-37
2023/05/28 08:24:48;;;;;;;5.97;1.98;;;;;;;19.33;39.51;101987.25;5061503;28;20035;-38
2023/05/28 08:27:13;;;;;;;6.47;2.65;;;;;;;19.35;39.21;101981.78;5062420;28;20558;-37
2023/05/28 08:29:39;;;;;;;6.75;2.33;;;;;;;19.39;39.30;101977.94;5064074;28;20069;-37
2023/05/28 08:32:04;;;;;;;5.60;2.25;;;;;;;19.41;39.20;101986.66;5065846;28;20029;-37
2023/05/28 08:34:30;;;;;;;5.20;1.58;;;;;;;19.43;39.37;101979.41;5068024;28;20040;-37
2023/05/28 08:36:56;;;;;;;4.78;1.88;;;;;;;19.46;38.72;101983.66;5063951;28;20108;-37
2023/05/28 08:39:23;;;;;;;8.02;2.47;;;;;;;19.48;38.04;101971.03;5054574;28;20040;-37
2023/05/28 08:41:49;;;;;;;6.35;2.13;;;;;;;19.49;37.59;101972.75;5074742;28;20402;-37
2023/05/28 08:44:14;;;;;;;7.47;2.08;;;;;;;19.56;37.67;101968.63;5070057;28;20389;-37
2023/05/28 08:46:41;;;;;;;9.32;2.08;;;;;;;19.59;37.62;101964.84;5073548;28;20467;-37
2023/05/28 08:49:09;;;;;;;10.90;3.17;;;;;;;19.63;37.26;101963.66;5074573;28;20031;-37
2023/05/28 08:51:37;;;;;;;6.45;1.95;;;;;;;19.67;37.79;101966.94;5062829;28;20027;-37
2023/05/28 08:54:06;;;;;;;6.85;1.98;;;;;;;19.71;37.27;101969.28;5063785;28;20087;-37
2023/05/28 08:56:31;;;;;;;2.95;1.73;;;;;;;19.72;37.35;101962.09;5068793;28;20178;-37
2023/05/28 08:58:58;;;;;;;4.80;1.73;;;;;;;19.74;36.78;101954.81;5073581;28;21527;-37
2023/05/28 09:01:23;;;;;;;6.13;1.98;;;;;;;19.74;36.82;101963.66;5058791;28;20050;-38
2023/05/28 09:03:49;;;;;;;7.22;1.92;;;;;;;19.78;36.74;101956.28;5064402;28;20032;-37
2023/05/28 09:06:16;;;;;;;4.68;1.70;;;;;;;19.82;36.45;101948.88;5064629;28;20111;-37
2023/05/28 09:08:44;;;;;;;5.07;1.67;;;;;;;19.87;36.01;101944.91;5070982;28;20098;-37
2023/05/28 09:11:14;;;;;;;5.53;2.35;;;;;;;19.91;36.08;101945.50;5064931;28;20059;-38
2023/05/28 09:13:44;;;;;;;7.63;2.35;;;;;;;19.92;36.20;101936.53;5065452;28;20036;-38
2023/05/28 09:16:20;;;;;;;6.25;1.88;;;;;;;19.94;35.81;101939.94;5068816;28;20036;-38
2023/05/28 09:18:48;;;;;;;5.50;1.67;;;;;;;19.96;35.45;101938.00;5055887;28;20101;-37
2023/05/28 09:21:14;;;;;;;4.05;1.52;;;;;;;19.98;35.05;101941.41;5064971;28;20602;-37
2023/05/28 09:23:39;;;;;;;3.78;1.45;;;;;;;20.00;34.70;101939.47;5064408;28;20038;-38
2023/05/28 09:26:11;;;;;;;5.85;2.03;;;;;;;20.02;34.00;101942.00;5072982;28;20028;-38
2023/05/28 09:28:42;;;;;;;6.55;2.30;;;;;;;20.04;34.67;101932.88;5070820;28;20359;-38
2023/05/28 09:31:07;;;;;;;6.38;2.35;;;;;;;20.07;35.14;101935.31;5065314;28;20506;-38
2023/05/28 09:33:33;;;;;;;4.47;2.13;;;;;;;20.13;35.18;101927.78;5072868;28;20028;-38
2023/05/28 09:36:01;;;;;;;6.47;3.58;;;;;;;20.18;34.83;101930.97;5072739;28;20110;-37
2023/05/28 09:38:27;;;;;;;6.90;2.47;;;;;;;20.23;35.08;101928.75;5072437;28;20032;-37
2023/05/28 09:40:55;;;;;;;8.80;4.15;;;;;;;20.34;34.98;101935.91;5071807;28;20051;-38
2023/05/28 09:43:30;;;;;;;6.93;2.53;;;;;;;20.40;34.02;101936.25;5073747;28;20063;-37
2023/05/28 09:46:08;;;;;;;3.78;1.80;;;;;;;20.49;34.54;101928.47;5074320;28;20028;-37
2023/05/28 09:48:34;;;;;;;7.95;2.33;;;;;;;20.50;34.79;101924.81;5079156;28;20024;-38
2023/05/28 09:51:02;;;;;;;12.40;6.82;;;;;;;20.49;34.82;101923.13;5059766;28;20101;-38
2023/05/28 09:53:29;;;;;;;6.82;3.35;;;;;;;20.50;34.75;101914.97;5080648;28;20032;-38
2023/05/28 09:55:58;;;;;;;9.85;4.35;;;;;;;20.53;35.07;101919.22;5078165;28;20662;-38
2023/05/28 09:58:31;;;;;;;8.52;2.60;;;;;;;20.58;35.05;101914.34;5081344;28;20036;-38
2023/05/28 10:01:00;;;;;;;7.72;2.53;;;;;;;20.63;34.61;101914.84;5073685;28;20406;-38
2023/05/28 10:03:37;;;;;;;4.97;2.38;;;;;;;20.71;34.03;101907.00;5072649;28;20114;-37
2023/05/28 10:06:10;;;;;;;4.90;2.20;;;;;;;20.75;34.00;101906.75;5066261;28;20359;-38
2023/05/28 10:08:40;;;;;;;4.43;1.90;;;;;;;20.75;33.30;101906.75;5064321;28;20041;-38
2023/05/28 10:11:09;;;;;;;5.15;1.70;;;;;;;20.73;33.36;101904.19;5061148;28;20032;-42
2023/05/28 10:13:35;;;;;;;5.28;1.95;;;;;;;20.73;33.44;101909.53;5077074;28;20035;-44
2023/05/28 10:16:01;;;;;;;4.63;2.20;;;;;;;20.78;33.28;101903.88;5062752;28;20491;-44
2023/05/28 10:18:27;;;;;;;5.53;2.37;;;;;;;20.80;33.60;101910.78;5067845;28;20041;-45
2023/05/28 10:20:53;;;;;;;6.78;2.28;;;;;;;20.83;33.62;101904.31;5073429;28;20036;-42
2023/05/28 10:23:21;;;;;;;5.75;2.65;;;;;;;21.43;32.86;101906.44;5078863;28;20064;-43
2023/05/28 10:25:47;;;;;;;8.73;3.63;;;;;;;21.51;32.30;101906.66;5075992;28;20097;-45
2023/05/28 10:28:16;;;;;;;8.52;2.60;;;;;;;21.63;31.87;101910.09;5081988;28;20490;-43
2023/05/28 10:30:41;;;;;;;12.20;3.67;;;;;;;21.67;32.13;101910.69;5080757;28;20020;-44
2023/05/28 10:33:17;;;;;;;10.25;2.60;;;;;;;21.74;31.81;101906.50;5077324;28;20054;-43
2023/05/28 10:35:58;;;;;;;8.13;2.55;;;;;;;21.81;32.17;101898.75;5058337;28;20052;-43
2023/05/28 10:38:25;;;;;;;4.55;2.20;;;;;;;21.31;33.30;101898.47;5074607;28;20170;-42
2023/05/28 10:40:51;;;;;;;6.65;2.83;;;;;;;21.21;33.33;101894.91;5068613;28;20037;-45
2023/05/28 10:43:47;;;;;;;4.88;1.95;;;;;;;21.22;32.49;101896.59;5063144;28;20086;-42
2023/05/28 10:46:19;;;;;;;6.38;1.80;;;;;;;21.23;32.81;101900.97;5067110;28;20075;-42
2023/05/28 10:49:12;;;;;;;8.90;3.10;;;;;;;21.21;32.33;101897.59;5080033;28;20063;-42
2023/05/28 10:51:45;;;;;;;4.20;2.03;;;;;;;21.23;32.48;101895.63;5076533;28;20517;-45
2023/05/28 10:54:15;;;;;;;3.80;1.63;;;;;;;21.29;32.86;101894.25;5079482;28;20032;-45
2023/05/28 10:57:12;;;;;;;5.97;2.40;;;;;;;21.31;32.02;101895.81;5071581;28;20036;-45
2023/05/28 10:59:50;;;;;;;6.30;1.90;;;;;;;21.34;32.81;101897.38;5070195;28;20033;-42
2023/05/28 11:02:22;;;;;;;8.95;3.78;;;;;;;21.41;32.72;101900.34;5070389;28;20498;-40
2023/05/28 11:04:52;;;;;;;6.03;2.25;;;;;;;21.47;32.80;101902.53;5070216;28;20040;-45
2023/05/28 11:07:19;;;;;;;7.80;2.33;;;;;;;21.50;32.59;101891.56;5049596;28;20039;-44
2023/05/28 11:09:50;;;;;;;9.13;2.08;;;;;;;21.59;32.51;101898.78;5075818;28;20062;-42
2023/05/28 11:12:15;;;;;;;9.02;2.55;;;;;;;21.62;32.40;101890.53;5075183;28;20044;-47
2023/05/28 11:14:41;;;;;;;5.82;2.60;;;;;;;21.67;32.52;101881.25;5076381;28;21185;-45
2023/05/28 11:17:13;;;;;;;6.47;2.03;;;;;;;21.71;31.81;101885.31;5043192;28;20024;-43
2023/05/28 11:19:44;;;;;;;6.72;3.63;;;;;;;21.77;32.17;101882.13;5059314;28;20024;-42
2023/05/28 11:22:10;;;;;;;15.48;7.00;;;;;;;21.85;32.36;101879.63;5079135;28;20122;-40